sensor_id;sensor_type;location;lat;lon;timestamp;P1;durP1;ratioP1;P2;durP2;ratioP2
27201;SDS011;14717;46.924;15.474;2023-11-19T00:02:08;9.93;;;5.57;;
27201;SDS011;14717;46.924;15.474;2023-11-19T00:04:37;10.73;;;5.53;;
27201;SDS011;14717;46.924;15.474;2023-11-19T00:07:06;10.50;;;5.35;;
27201;SDS011;14717;46.924;15.474;2023-11-19T00:09:33;10.15;;;5.20;;
27201;SDS011;14717;46.924;15.474;2023-11-19T00:11:59;11.63;;;5.15;;
27201;SDS011;14717;46.924;15.474;2023-11-19T00:16:51;11.18;;;5.72;;
27201;SDS011;14717;46.924;15.474;2023-11-19T00:19:16;8.20;;;4.65;;
27201;SDS011;14717;46.924;15.474;2023-11-19T00:21:42;9.98;;;5.07;;
27201;SDS011;14717;46.924;15.474;2023-11-19T00:24:07;13.43;;;6.85;;
27201;SDS011;14717;46.924;15.474;2023-11-19T00:26:33;10.55;;;5.10;;
27201;SDS011;14717;46.924;15.474;2023-11-19T00:28:59;10.50;;;5.30;;
27201;SDS011;14717;46.924;15.474;2023-11-19T00:31:25;8.80;;;4.97;;
27201;SDS011;14717;46.924;15.474;2023-11-19T00:33:53;11.73;;;4.75;;
27201;SDS011;14717;46.924;15.474;2023-11-19T00:36:19;11.38;;;5.47;;
27201;SDS011;14717;46.924;15.474;2023-11-19T00:38:45;9.98;;;5.57;;
27201;SDS011;14717;46.924;15.474;2023-11-19T00:41:11;15.55;;;5.55;;
27201;SDS011;14717;46.924;15.474;2023-11-19T00:43:36;12.38;;;5.97;;
27201;SDS011;14717;46.924;15.474;2023-11-19T00:46:02;10.93;;;5.78;;
27201;SDS011;14717;46.924;15.474;2023-11-19T00:48:30;10.05;;;5.40;;
27201;SDS011;14717;46.924;15.474;2023-11-19T00:50:56;10.07;;;5.47;;
27201;SDS011;14717;46.924;15.474;2023-11-19T00:53:22;10.45;;;6.00;;
27201;SDS011;14717;46.924;15.474;2023-11-19T00:55:50;11.88;;;5.80;;
27201;SDS011;14717;46.924;15.474;2023-11-19T00:58:15;13.50;;;6.43;;
27201;SDS011;14717;46.924;15.474;2023-11-19T01:00:42;11.13;;;5.20;;
27201;SDS011;14717;46.924;15.474;2023-11-19T01:03:10;11.63;;;5.63;;
27201;SDS011;14717;46.924;15.474;2023-11-19T01:05:36;11.55;;;5.35;;
27201;SDS011;14717;46.924;15.474;2023-11-19T01:08:02;11.13;;;5.50;;
27201;SDS011;14717;46.924;15.474;2023-11-19T01:10:31;13.18;;;5.90;;
27201;SDS011;14717;46.924;15.474;2023-11-19T01:13:04;9.05;;;5.30;;
27201;SDS011;14717;46.924;15.474;2023-11-19T01:15:33;10.13;;;5.40;;
27201;SDS011;14717;46.924;15.474;2023-11-19T01:17:58;11.50;;;5.88;;
27201;SDS011;14717;46.924;15.474;2023-11-19T01:20:29;9.38;;;5.45;;
27201;SDS011;14717;46.924;15.474;2023-11-19T01:22:59;10.35;;;5.57;;
27201;SDS011;14717;46.924;15.474;2023-11-19T01:25:24;13.27;;;5.47;;
27201;SDS011;14717;46.924;15.474;2023-11-19T01:27:53;11.75;;;5.80;;
27201;SDS011;14717;46.924;15.474;2023-11-19T01:30:18;14.30;;;5.57;;
27201;SDS011;14717;46.924;15.474;2023-11-19T01:32:44;11.23;;;5.32;;
27201;SDS011;14717;46.924;15.474;2023-11-19T01:35:10;9.75;;;4.72;;
27201;SDS011;14717;46.924;15.474;2023-11-19T01:37:36;9.73;;;5.13;;
27201;SDS011;14717;46.924;15.474;2023-11-19T01:40:01;9.93;;;5.32;;
27201;SDS011;14717;46.924;15.474;2023-11-19T01:42:39;7.57;;;4.75;;
27201;SDS011;14717;46.924;15.474;2023-11-19T01:45:06;11.48;;;5.65;;
27201;SDS011;14717;46.924;15.474;2023-11-19T01:47:35;8.90;;;4.93;;
27201;SDS011;14717;46.924;15.474;2023-11-19T01:50:01;11.82;;;5.40;;
27201;SDS011;14717;46.924;15.474;2023-11-19T01:52:34;12.73;;;5.10;;
27201;SDS011;14717;46.924;15.474;2023-11-19T01:55:04;10.73;;;5.22;;
27201;SDS011;14717;46.924;15.474;2023-11-19T01:57:32;9.20;;;4.50;;
27201;SDS011;14717;46.924;15.474;2023-11-19T01:59:58;11.75;;;4.93;;
27201;SDS011;14717;46.924;15.474;2023-11-19T02:02:27;9.02;;;4.88;;
27201;SDS011;14717;46.924;15.474;2023-11-19T02:04:53;9.98;;;4.90;;
27201;SDS011;14717;46.924;15.474;2023-11-19T02:07:18;8.57;;;5.07;;
27201;SDS011;14717;46.924;15.474;2023-11-19T02:09:45;10.00;;;4.70;;
27201;SDS011;14717;46.924;15.474;2023-11-19T02:12:10;10.63;;;5.68;;
27201;SDS011;14717;46.924;15.474;2023-11-19T02:14:40;7.95;;;4.55;;
27201;SDS011;14717;46.924;15.474;2023-11-19T02:17:05;10.23;;;4.55;;
27201;SDS011;14717;46.924;15.474;2023-11-19T02:19:31;9.25;;;3.90;;
27201;SDS011;14717;46.924;15.474;2023-11-19T02:21:57;9.13;;;4.30;;
27201;SDS011;14717;46.924;15.474;2023-11-19T02:24:22;9.82;;;4.22;;
27201;SDS011;14717;46.924;15.474;2023-11-19T02:26:59;8.80;;;4.10;;
27201;SDS011;14717;46.924;15.474;2023-11-19T02:29:36;6.28;;;3.50;;
27201;SDS011;14717;46.924;15.474;2023-11-19T02:32:01;7.43;;;4.63;;
27201;SDS011;14717;46.924;15.474;2023-11-19T02:34:27;7.68;;;3.83;;
27201;SDS011;14717;46.924;15.474;2023-11-19T02:36:52;9.40;;;3.92;;
27201;SDS011;14717;46.924;15.474;2023-11-19T02:39:18;5.57;;;3.50;;
27201;SDS011;14717;46.924;15.474;2023-11-19T02:41:46;7.50;;;4.10;;
27201;SDS011;14717;46.924;15.474;2023-11-19T02:44:14;7.32;;;4.05;;
27201;SDS011;14717;46.924;15.474;2023-11-19T02:46:40;7.93;;;3.85;;
27201;SDS011;14717;46.924;15.474;2023-11-19T02:49:07;7.30;;;3.83;;
27201;SDS011;14717;46.924;15.474;2023-11-19T02:51:33;7.43;;;3.90;;
27201;SDS011;14717;46.924;15.474;2023-11-19T02:53:59;8.00;;;3.60;;
27201;SDS011;14717;46.924;15.474;2023-11-19T02:56:25;6.95;;;3.58;;
27201;SDS011;14717;46.924;15.474;2023-11-19T02:58:51;8.35;;;3.95;;
27201;SDS011;14717;46.924;15.474;2023-11-19T03:01:24;7.22;;;3.88;;
27201;SDS011;14717;46.924;15.474;2023-11-19T03:04:00;8.48;;;4.10;;
27201;SDS011;14717;46.924;15.474;2023-11-19T03:06:27;7.00;;;3.22;;
27201;SDS011;14717;46.924;15.474;2023-11-19T03:08:54;7.15;;;3.33;;
27201;SDS011;14717;46.924;15.474;2023-11-19T03:11:20;7.28;;;3.70;;
27201;SDS011;14717;46.924;15.474;2023-11-19T03:13:45;7.93;;;3.85;;
27201;SDS011;14717;46.924;15.474;2023-11-19T03:16:11;5.68;;;3.25;;
27201;SDS011;14717;46.924;15.474;2023-11-19T03:18:37;7.15;;;3.65;;
27201;SDS011;14717;46.924;15.474;2023-11-19T03:21:04;7.30;;;3.58;;
27201;SDS011;14717;46.924;15.474;2023-11-19T03:23:33;5.82;;;3.20;;
27201;SDS011;14717;46.924;15.474;2023-11-19T03:25:59;6.65;;;3.72;;
27201;SDS011;14717;46.924;15.474;2023-11-19T03:28:28;6.75;;;3.50;;
27201;SDS011;14717;46.924;15.474;2023-11-19T03:30:54;6.93;;;3.90;;
27201;SDS011;14717;46.924;15.474;2023-11-19T03:33:20;8.07;;;3.78;;
27201;SDS011;14717;46.924;15.474;2023-11-19T03:35:52;6.80;;;3.40;;
27201;SDS011;14717;46.924;15.474;2023-11-19T03:38:21;5.13;;;3.38;;
27201;SDS011;14717;46.924;15.474;2023-11-19T03:40:47;5.88;;;3.40;;
27201;SDS011;14717;46.924;15.474;2023-11-19T03:43:12;6.28;;;3.28;;
27201;SDS011;14717;46.924;15.474;2023-11-19T03:45:38;6.45;;;3.85;;
27201;SDS011;14717;46.924;15.474;2023-11-19T03:48:03;7.07;;;3.78;;
27201;SDS011;14717;46.924;15.474;2023-11-19T03:50:32;5.80;;;3.63;;
27201;SDS011;14717;46.924;15.474;2023-11-19T03:52:57;6.95;;;3.60;;
27201;SDS011;14717;46.924;15.474;2023-11-19T03:55:26;7.47;;;3.35;;
27201;SDS011;14717;46.924;15.474;2023-11-19T03:57:51;7.75;;;3.25;;
27201;SDS011;14717;46.924;15.474;2023-11-19T04:00:17;6.03;;;3.20;;
27201;SDS011;14717;46.924;15.474;2023-11-19T04:02:43;6.03;;;3.55;;
27201;SDS011;14717;46.924;15.474;2023-11-19T04:05:08;7.80;;;4.15;;
27201;SDS011;14717;46.924;15.474;2023-11-19T04:07:34;7.80;;;3.65;;
27201;SDS011;14717;46.924;15.474;2023-11-19T04:10:02;9.15;;;3.60;;
27201;SDS011;14717;46.924;15.474;2023-11-19T04:12:28;7.93;;;3.92;;
27201;SDS011;14717;46.924;15.474;2023-11-19T04:14:54;5.68;;;3.80;;
27201;SDS011;14717;46.924;15.474;2023-11-19T04:17:19;7.32;;;3.80;;
27201;SDS011;14717;46.924;15.474;2023-11-19T04:19:47;11.27;;;3.92;;
27201;SDS011;14717;46.924;15.474;2023-11-19T04:22:13;9.23;;;4.07;;
27201;SDS011;14717;46.924;15.474;2023-11-19T04:24:42;6.75;;;3.75;;
27201;SDS011;14717;46.924;15.474;2023-11-19T04:27:09;7.35;;;3.78;;
27201;SDS011;14717;46.924;15.474;2023-11-19T04:29:35;6.88;;;3.92;;
27201;SDS011;14717;46.924;15.474;2023-11-19T04:32:00;6.20;;;3.28;;
27201;SDS011;14717;46.924;15.474;2023-11-19T04:34:26;6.22;;;3.67;;
27201;SDS011;14717;46.924;15.474;2023-11-19T04:36:51;7.03;;;3.80;;
27201;SDS011;14717;46.924;15.474;2023-11-19T04:39:17;6.40;;;3.83;;
27201;SDS011;14717;46.924;15.474;2023-11-19T04:44:18;8.98;;;3.60;;
27201;SDS011;14717;46.924;15.474;2023-11-19T04:46:46;7.68;;;3.88;;
27201;SDS011;14717;46.924;15.474;2023-11-19T04:49:12;6.93;;;3.50;;
27201;SDS011;14717;46.924;15.474;2023-11-19T04:51:41;5.95;;;3.78;;
27201;SDS011;14717;46.924;15.474;2023-11-19T04:54:10;6.53;;;3.70;;
27201;SDS011;14717;46.924;15.474;2023-11-19T04:56:39;6.63;;;4.00;;
27201;SDS011;14717;46.924;15.474;2023-11-19T04:59:05;6.70;;;3.63;;
27201;SDS011;14717;46.924;15.474;2023-11-19T05:01:33;6.80;;;3.97;;
27201;SDS011;14717;46.924;15.474;2023-11-19T05:04:00;7.45;;;4.38;;
27201;SDS011;14717;46.924;15.474;2023-11-19T05:06:26;8.38;;;3.97;;
27201;SDS011;14717;46.924;15.474;2023-11-19T05:08:53;8.25;;;4.30;;
27201;SDS011;14717;46.924;15.474;2023-11-19T05:11:19;7.82;;;4.22;;
27201;SDS011;14717;46.924;15.474;2023-11-19T05:13:45;8.18;;;4.03;;
27201;SDS011;14717;46.924;15.474;2023-11-19T05:16:11;8.60;;;4.03;;
27201;SDS011;14717;46.924;15.474;2023-11-19T05:18:39;7.45;;;4.15;;
27201;SDS011;14717;46.924;15.474;2023-11-19T05:21:05;9.38;;;4.30;;
27201;SDS011;14717;46.924;15.474;2023-11-19T05:23:31;8.10;;;4.45;;
27201;SDS011;14717;46.924;15.474;2023-11-19T05:25:58;7.63;;;4.18;;
27201;SDS011;14717;46.924;15.474;2023-11-19T05:28:25;7.80;;;3.75;;
27201;SDS011;14717;46.924;15.474;2023-11-19T05:30:51;8.43;;;4.28;;
27201;SDS011;14717;46.924;15.474;2023-11-19T05:33:17;9.05;;;3.92;;
27201;SDS011;14717;46.924;15.474;2023-11-19T05:35:42;7.43;;;3.95;;
27201;SDS011;14717;46.924;15.474;2023-11-19T05:38:07;8.50;;;4.57;;
27201;SDS011;14717;46.924;15.474;2023-11-19T05:40:34;7.13;;;3.90;;
27201;SDS011;14717;46.924;15.474;2023-11-19T05:43:00;7.90;;;4.13;;
27201;SDS011;14717;46.924;15.474;2023-11-19T05:45:26;9.43;;;4.32;;
27201;SDS011;14717;46.924;15.474;2023-11-19T05:47:51;10.73;;;4.40;;
27201;SDS011;14717;46.924;15.474;2023-11-19T05:50:19;13.00;;;5.85;;
27201;SDS011;14717;46.924;15.474;2023-11-19T05:52:48;10.55;;;4.90;;
27201;SDS011;14717;46.924;15.474;2023-11-19T05:55:14;9.02;;;4.45;;
27201;SDS011;14717;46.924;15.474;2023-11-19T05:57:39;9.52;;;4.95;;
27201;SDS011;14717;46.924;15.474;2023-11-19T06:00:05;8.63;;;4.68;;
27201;SDS011;14717;46.924;15.474;2023-11-19T06:02:32;11.23;;;5.43;;
27201;SDS011;14717;46.924;15.474;2023-11-19T06:04:58;11.52;;;5.65;;
27201;SDS011;14717;46.924;15.474;2023-11-19T06:07:24;11.63;;;5.40;;
27201;SDS011;14717;46.924;15.474;2023-11-19T06:09:59;13.20;;;5.50;;
27201;SDS011;14717;46.924;15.474;2023-11-19T06:12:24;13.43;;;5.07;;
27201;SDS011;14717;46.924;15.474;2023-11-19T06:14:52;18.65;;;6.25;;
27201;SDS011;14717;46.924;15.474;2023-11-19T06:17:18;23.65;;;9.35;;
27201;SDS011;14717;46.924;15.474;2023-11-19T06:19:43;19.42;;;9.73;;
27201;SDS011;14717;46.924;15.474;2023-11-19T06:22:10;17.42;;;7.82;;
27201;SDS011;14717;46.924;15.474;2023-11-19T06:24:36;10.77;;;6.15;;
27201;SDS011;14717;46.924;15.474;2023-11-19T06:27:01;14.07;;;6.80;;
27201;SDS011;14717;46.924;15.474;2023-11-19T06:29:28;20.17;;;8.63;;
27201;SDS011;14717;46.924;15.474;2023-11-19T06:31:53;19.90;;;8.18;;
27201;SDS011;14717;46.924;15.474;2023-11-19T06:34:18;18.15;;;8.25;;
27201;SDS011;14717;46.924;15.474;2023-11-19T06:36:44;15.45;;;7.60;;
27201;SDS011;14717;46.924;15.474;2023-11-19T06:39:09;12.10;;;5.30;;
27201;SDS011;14717;46.924;15.474;2023-11-19T06:41:38;11.48;;;5.15;;
27201;SDS011;14717;46.924;15.474;2023-11-19T06:44:04;12.23;;;5.35;;
27201;SDS011;14717;46.924;15.474;2023-11-19T06:46:30;10.50;;;5.75;;
27201;SDS011;14717;46.924;15.474;2023-11-19T06:48:56;20.52;;;8.07;;
27201;SDS011;14717;46.924;15.474;2023-11-19T06:51:22;15.05;;;7.13;;
27201;SDS011;14717;46.924;15.474;2023-11-19T06:53:47;22.80;;;8.98;;
27201;SDS011;14717;46.924;15.474;2023-11-19T06:56:22;19.85;;;8.52;;
27201;SDS011;14717;46.924;15.474;2023-11-19T06:58:49;20.98;;;8.55;;
27201;SDS011;14717;46.924;15.474;2023-11-19T07:01:15;16.80;;;7.82;;
27201;SDS011;14717;46.924;15.474;2023-11-19T07:03:44;11.15;;;6.20;;
27201;SDS011;14717;46.924;15.474;2023-11-19T07:06:10;10.80;;;5.70;;
27201;SDS011;14717;46.924;15.474;2023-11-19T07:08:35;10.38;;;5.40;;
27201;SDS011;14717;46.924;15.474;2023-11-19T07:11:01;11.20;;;5.38;;
27201;SDS011;14717;46.924;15.474;2023-11-19T07:13:27;10.68;;;4.70;;
27201;SDS011;14717;46.924;15.474;2023-11-19T07:15:53;10.73;;;4.28;;
27201;SDS011;14717;46.924;15.474;2023-11-19T07:18:21;7.88;;;4.07;;
27201;SDS011;14717;46.924;15.474;2023-11-19T07:20:47;9.15;;;4.35;;
27201;SDS011;14717;46.924;15.474;2023-11-19T07:23:13;7.82;;;4.28;;
27201;SDS011;14717;46.924;15.474;2023-11-19T07:25:42;7.85;;;4.90;;
27201;SDS011;14717;46.924;15.474;2023-11-19T07:28:08;9.57;;;4.38;;
27201;SDS011;14717;46.924;15.474;2023-11-19T07:30:35;6.78;;;3.90;;
27201;SDS011;14717;46.924;15.474;2023-11-19T07:33:00;6.95;;;4.18;;
27201;SDS011;14717;46.924;15.474;2023-11-19T07:35:29;9.27;;;4.70;;
27201;SDS011;14717;46.924;15.474;2023-11-19T07:37:55;8.93;;;4.03;;
27201;SDS011;14717;46.924;15.474;2023-11-19T07:40:21;9.50;;;4.88;;
27201;SDS011;14717;46.924;15.474;2023-11-19T07:42:47;6.85;;;4.15;;
27201;SDS011;14717;46.924;15.474;2023-11-19T07:45:12;6.75;;;4.00;;
27201;SDS011;14717;46.924;15.474;2023-11-19T07:47:40;9.68;;;4.32;;
27201;SDS011;14717;46.924;15.474;2023-11-19T07:52:48;6.93;;;4.32;;
27201;SDS011;14717;46.924;15.474;2023-11-19T07:55:16;8.55;;;4.60;;
27201;SDS011;14717;46.924;15.474;2023-11-19T07:57:50;8.02;;;4.30;;
27201;SDS011;14717;46.924;15.474;2023-11-19T08:00:33;7.57;;;3.53;;
27201;SDS011;14717;46.924;15.474;2023-11-19T08:03:16;7.72;;;3.80;;
27201;SDS011;14717;46.924;15.474;2023-11-19T08:05:45;5.95;;;3.80;;
27201;SDS011;14717;46.924;15.474;2023-11-19T08:08:14;6.22;;;3.80;;
27201;SDS011;14717;46.924;15.474;2023-11-19T08:10:40;8.00;;;3.80;;
27201;SDS011;14717;46.924;15.474;2023-11-19T08:13:06;9.10;;;4.40;;
27201;SDS011;14717;46.924;15.474;2023-11-19T08:15:38;9.40;;;4.57;;
27201;SDS011;14717;46.924;15.474;2023-11-19T08:18:06;9.38;;;4.15;;
27201;SDS011;14717;46.924;15.474;2023-11-19T08:20:50;6.95;;;4.00;;
27201;SDS011;14717;46.924;15.474;2023-11-19T08:23:26;6.35;;;4.07;;
27201;SDS011;14717;46.924;15.474;2023-11-19T08:26:19;6.53;;;3.75;;
27201;SDS011;14717;46.924;15.474;2023-11-19T08:28:48;6.68;;;3.92;;
27201;SDS011;14717;46.924;15.474;2023-11-19T08:31:14;8.38;;;4.93;;
27201;SDS011;14717;46.924;15.474;2023-11-19T08:33:39;8.55;;;4.03;;
27201;SDS011;14717;46.924;15.474;2023-11-19T08:36:05;7.93;;;4.22;;
27201;SDS011;14717;46.924;15.474;2023-11-19T08:38:31;8.38;;;4.50;;
27201;SDS011;14717;46.924;15.474;2023-11-19T08:40:57;10.05;;;4.40;;
27201;SDS011;14717;46.924;15.474;2023-11-19T08:43:25;9.10;;;4.20;;
27201;SDS011;14717;46.924;15.474;2023-11-19T08:46:02;8.77;;;4.60;;
27201;SDS011;14717;46.924;15.474;2023-11-19T08:48:39;7.90;;;4.72;;
27201;SDS011;14717;46.924;15.474;2023-11-19T08:51:32;8.88;;;4.18;;
27201;SDS011;14717;46.924;15.474;2023-11-19T08:54:01;8.40;;;4.25;;
27201;SDS011;14717;46.924;15.474;2023-11-19T08:56:36;8.15;;;4.28;;
27201;SDS011;14717;46.924;15.474;2023-11-19T08:59:16;7.60;;;3.95;;
27201;SDS011;14717;46.924;15.474;2023-11-19T09:01:48;9.93;;;4.63;;
27201;SDS011;14717;46.924;15.474;2023-11-19T09:04:22;8.13;;;3.72;;
27201;SDS011;14717;46.924;15.474;2023-11-19T09:06:47;8.02;;;4.40;;
27201;SDS011;14717;46.924;15.474;2023-11-19T09:09:14;6.57;;;3.95;;
27201;SDS011;14717;46.924;15.474;2023-11-19T09:11:42;7.38;;;4.40;;
27201;SDS011;14717;46.924;15.474;2023-11-19T09:14:07;7.13;;;4.40;;
27201;SDS011;14717;46.924;15.474;2023-11-19T09:16:33;7.10;;;3.90;;
27201;SDS011;14717;46.924;15.474;2023-11-19T09:18:59;6.07;;;3.78;;
27201;SDS011;14717;46.924;15.474;2023-11-19T09:21:25;7.82;;;4.07;;
27201;SDS011;14717;46.924;15.474;2023-11-19T09:23:51;7.63;;;3.90;;
27201;SDS011;14717;46.924;15.474;2023-11-19T09:26:19;7.03;;;4.25;;
27201;SDS011;14717;46.924;15.474;2023-11-19T09:28:49;8.68;;;4.18;;
27201;SDS011;14717;46.924;15.474;2023-11-19T09:31:18;44.35;;;14.38;;
27201;SDS011;14717;46.924;15.474;2023-11-19T09:33:44;11.65;;;5.30;;
27201;SDS011;14717;46.924;15.474;2023-11-19T09:36:13;9.02;;;4.40;;
27201;SDS011;14717;46.924;15.474;2023-11-19T09:38:44;7.22;;;4.05;;
27201;SDS011;14717;46.924;15.474;2023-11-19T09:41:10;9.75;;;4.43;;
27201;SDS011;14717;46.924;15.474;2023-11-19T09:43:39;7.97;;;4.00;;
27201;SDS011;14717;46.924;15.474;2023-11-19T09:46:06;8.65;;;4.45;;
27201;SDS011;14717;46.924;15.474;2023-11-19T09:48:33;9.35;;;4.00;;
27201;SDS011;14717;46.924;15.474;2023-11-19T09:51:00;7.05;;;4.05;;
27201;SDS011;14717;46.924;15.474;2023-11-19T09:53:26;7.75;;;4.32;;
27201;SDS011;14717;46.924;15.474;2023-11-19T09:55:57;11.23;;;5.53;;
27201;SDS011;14717;46.924;15.474;2023-11-19T09:58:33;9.45;;;5.32;;
27201;SDS011;14717;46.924;15.474;2023-11-19T10:01:10;19.35;;;10.00;;
27201;SDS011;14717;46.924;15.474;2023-11-19T10:03:41;7.30;;;4.30;;
27201;SDS011;14717;46.924;15.474;2023-11-19T10:22:36;7.43;;;3.83;;
27201;SDS011;14717;46.924;15.474;2023-11-19T10:25:02;7.68;;;4.70;;
27201;SDS011;14717;46.924;15.474;2023-11-19T10:27:30;6.93;;;3.95;;
27201;SDS011;14717;46.924;15.474;2023-11-19T10:33:29;8.07;;;4.05;;
27201;SDS011;14717;46.924;15.474;2023-11-19T10:35:56;7.85;;;3.97;;
27201;SDS011;14717;46.924;15.474;2023-11-19T10:38:23;8.00;;;4.38;;
27201;SDS011;14717;46.924;15.474;2023-11-19T10:40:49;7.50;;;4.78;;
27201;SDS011;14717;46.924;15.474;2023-11-19T10:43:16;8.93;;;4.80;;
27201;SDS011;14717;46.924;15.474;2023-11-19T10:45:44;8.80;;;4.72;;
27201;SDS011;14717;46.924;15.474;2023-11-19T10:48:10;8.48;;;4.65;;
27201;SDS011;14717;46.924;15.474;2023-11-19T10:50:36;7.28;;;4.63;;
27201;SDS011;14717;46.924;15.474;2023-11-19T10:53:06;7.85;;;4.53;;
27201;SDS011;14717;46.924;15.474;2023-11-19T10:55:34;8.60;;;4.60;;
27201;SDS011;14717;46.924;15.474;2023-11-19T10:58:01;7.35;;;4.50;;
27201;SDS011;14717;46.924;15.474;2023-11-19T11:00:30;9.70;;;4.93;;
27201;SDS011;14717;46.924;15.474;2023-11-19T11:03:02;6.50;;;4.03;;
27201;SDS011;14717;46.924;15.474;2023-11-19T11:05:35;10.30;;;4.97;;
27201;SDS011;14717;46.924;15.474;2023-11-19T11:08:02;7.60;;;4.18;;
27201;SDS011;14717;46.924;15.474;2023-11-19T11:10:30;8.57;;;4.40;;
27201;SDS011;14717;46.924;15.474;2023-11-19T11:13:02;7.95;;;4.15;;
27201;SDS011;14717;46.924;15.474;2023-11-19T11:15:29;6.20;;;4.20;;
27201;SDS011;14717;46.924;15.474;2023-11-19T11:17:57;7.40;;;3.95;;
27201;SDS011;14717;46.924;15.474;2023-11-19T11:20:26;8.82;;;4.00;;
27201;SDS011;14717;46.924;15.474;2023-11-19T11:31:02;7.07;;;3.88;;
27201;SDS011;14717;46.924;15.474;2023-11-19T11:39:41;10.95;;;4.07;;
27201;SDS011;14717;46.924;15.474;2023-11-19T11:45:00;6.47;;;3.83;;
27201;SDS011;14717;46.924;15.474;2023-11-19T11:50:10;7.13;;;3.70;;
27201;SDS011;14717;46.924;15.474;2023-11-19T11:55:37;6.38;;;3.65;;
27201;SDS011;14717;46.924;15.474;2023-11-19T11:58:26;5.70;;;3.58;;
27201;SDS011;14717;46.924;15.474;2023-11-19T12:00:57;6.68;;;3.35;;
27201;SDS011;14717;46.924;15.474;2023-11-19T12:03:23;6.10;;;3.30;;
27201;SDS011;14717;46.924;15.474;2023-11-19T12:05:48;5.10;;;3.20;;
27201;SDS011;14717;46.924;15.474;2023-11-19T12:08:15;6.55;;;3.53;;
27201;SDS011;14717;46.924;15.474;2023-11-19T12:10:52;6.45;;;3.15;;
27201;SDS011;14717;46.924;15.474;2023-11-19T12:13:19;8.13;;;3.95;;
27201;SDS011;14717;46.924;15.474;2023-11-19T12:18:23;7.00;;;3.55;;
27201;SDS011;14717;46.924;15.474;2023-11-19T12:20:52;8.75;;;3.70;;
27201;SDS011;14717;46.924;15.474;2023-11-19T12:23:17;6.82;;;3.80;;
27201;SDS011;14717;46.924;15.474;2023-11-19T12:25:43;5.82;;;3.20;;
27201;SDS011;14717;46.924;15.474;2023-11-19T12:28:13;6.30;;;3.35;;
27201;SDS011;14717;46.924;15.474;2023-11-19T12:30:39;7.82;;;3.08;;
27201;SDS011;14717;46.924;15.474;2023-11-19T12:33:08;5.25;;;2.95;;
27201;SDS011;14717;46.924;15.474;2023-11-19T12:35:40;5.85;;;3.17;;
27201;SDS011;14717;46.924;15.474;2023-11-19T12:38:08;5.63;;;3.53;;
27201;SDS011;14717;46.924;15.474;2023-11-19T12:42:59;7.53;;;3.45;;
27201;SDS011;14717;46.924;15.474;2023-11-19T12:45:33;5.60;;;3.13;;
27201;SDS011;14717;46.924;15.474;2023-11-19T12:48:06;7.05;;;3.45;;
27201;SDS011;14717;46.924;15.474;2023-11-19T12:53:22;4.43;;;2.70;;
27201;SDS011;14717;46.924;15.474;2023-11-19T12:55:48;3.47;;;2.30;;
27201;SDS011;14717;46.924;15.474;2023-11-19T12:58:34;5.05;;;2.58;;
27201;SDS011;14717;46.924;15.474;2023-11-19T13:01:05;5.25;;;2.33;;
27201;SDS011;14717;46.924;15.474;2023-11-19T13:03:32;5.30;;;2.33;;
27201;SDS011;14717;46.924;15.474;2023-11-19T13:06:02;3.65;;;2.47;;
27201;SDS011;14717;46.924;15.474;2023-11-19T13:08:28;4.55;;;2.20;;
27201;SDS011;14717;46.924;15.474;2023-11-19T13:11:00;6.03;;;2.17;;
27201;SDS011;14717;46.924;15.474;2023-11-19T13:13:26;5.10;;;2.78;;
27201;SDS011;14717;46.924;15.474;2023-11-19T13:15:51;4.68;;;2.30;;
27201;SDS011;14717;46.924;15.474;2023-11-19T13:18:16;5.15;;;2.70;;
27201;SDS011;14717;46.924;15.474;2023-11-19T13:20:42;6.75;;;3.40;;
27201;SDS011;14717;46.924;15.474;2023-11-19T13:23:08;6.43;;;3.08;;
27201;SDS011;14717;46.924;15.474;2023-11-19T13:25:34;5.50;;;2.50;;
27201;SDS011;14717;46.924;15.474;2023-11-19T13:28:07;7.20;;;3.35;;
27201;SDS011;14717;46.924;15.474;2023-11-19T13:30:35;6.30;;;3.38;;
27201;SDS011;14717;46.924;15.474;2023-11-19T13:33:06;6.30;;;3.28;;
27201;SDS011;14717;46.924;15.474;2023-11-19T13:35:33;6.22;;;3.17;;
27201;SDS011;14717;46.924;15.474;2023-11-19T13:38:03;5.30;;;3.03;;
27201;SDS011;14717;46.924;15.474;2023-11-19T13:40:29;5.78;;;3.30;;
27201;SDS011;14717;46.924;15.474;2023-11-19T13:42:55;7.68;;;2.70;;
27201;SDS011;14717;46.924;15.474;2023-11-19T13:45:20;7.93;;;4.03;;
27201;SDS011;14717;46.924;15.474;2023-11-19T13:47:46;6.43;;;3.50;;
27201;SDS011;14717;46.924;15.474;2023-11-19T13:50:12;5.05;;;2.70;;
27201;SDS011;14717;46.924;15.474;2023-11-19T13:52:40;10.23;;;5.93;;
27201;SDS011;14717;46.924;15.474;2023-11-19T13:55:08;5.50;;;3.10;;
27201;SDS011;14717;46.924;15.474;2023-11-19T13:57:35;5.40;;;2.75;;
27201;SDS011;14717;46.924;15.474;2023-11-19T14:02:38;4.10;;;2.50;;
27201;SDS011;14717;46.924;15.474;2023-11-19T14:05:07;4.90;;;2.55;;
27201;SDS011;14717;46.924;15.474;2023-11-19T14:07:33;5.20;;;2.65;;
27201;SDS011;14717;46.924;15.474;2023-11-19T14:09:59;4.75;;;3.22;;
27201;SDS011;14717;46.924;15.474;2023-11-19T14:12:27;5.88;;;2.83;;
27201;SDS011;14717;46.924;15.474;2023-11-19T14:14:52;5.70;;;2.95;;
27201;SDS011;14717;46.924;15.474;2023-11-19T14:17:18;5.95;;;3.00;;
27201;SDS011;14717;46.924;15.474;2023-11-19T14:19:43;6.07;;;3.13;;
27201;SDS011;14717;46.924;15.474;2023-11-19T14:22:09;5.82;;;3.03;;
27201;SDS011;14717;46.924;15.474;2023-11-19T14:24:35;4.60;;;2.78;;
27201;SDS011;14717;46.924;15.474;2023-11-19T14:27:00;6.43;;;3.60;;
27201;SDS011;14717;46.924;15.474;2023-11-19T14:29:26;6.53;;;3.55;;
27201;SDS011;14717;46.924;15.474;2023-11-19T14:31:53;5.97;;;3.25;;
27201;SDS011;14717;46.924;15.474;2023-11-19T14:34:19;5.75;;;3.15;;
27201;SDS011;14717;46.924;15.474;2023-11-19T14:36:45;7.35;;;3.75;;
27201;SDS011;14717;46.924;15.474;2023-11-19T14:39:11;6.78;;;4.00;;
27201;SDS011;14717;46.924;15.474;2023-11-19T14:41:36;6.63;;;3.80;;
27201;SDS011;14717;46.924;15.474;2023-11-19T14:44:02;7.68;;;3.92;;
27201;SDS011;14717;46.924;15.474;2023-11-19T14:46:28;6.47;;;3.95;;
27201;SDS011;14717;46.924;15.474;2023-11-19T14:48:54;7.00;;;3.53;;
27201;SDS011;14717;46.924;15.474;2023-11-19T14:51:19;6.32;;;3.95;;
27201;SDS011;14717;46.924;15.474;2023-11-19T14:53:45;9.02;;;4.80;;
27201;SDS011;14717;46.924;15.474;2023-11-19T14:56:11;7.82;;;3.90;;
27201;SDS011;14717;46.924;15.474;2023-11-19T14:58:37;8.68;;;4.60;;
27201;SDS011;14717;46.924;15.474;2023-11-19T15:01:03;6.60;;;3.92;;
27201;SDS011;14717;46.924;15.474;2023-11-19T15:03:29;7.32;;;3.80;;
27201;SDS011;14717;46.924;15.474;2023-11-19T15:05:55;12.93;;;5.28;;
27201;SDS011;14717;46.924;15.474;2023-11-19T15:08:21;12.38;;;4.82;;
27201;SDS011;14717;46.924;15.474;2023-11-19T15:10:47;11.43;;;4.93;;
27201;SDS011;14717;46.924;15.474;2023-11-19T15:13:12;9.20;;;4.63;;
27201;SDS011;14717;46.924;15.474;2023-11-19T15:15:38;9.93;;;5.13;;
27201;SDS011;14717;46.924;15.474;2023-11-19T15:18:07;8.95;;;4.50;;
27201;SDS011;14717;46.924;15.474;2023-11-19T15:20:34;13.25;;;5.95;;
27201;SDS011;14717;46.924;15.474;2023-11-19T15:23:01;8.20;;;4.38;;
27201;SDS011;14717;46.924;15.474;2023-11-19T15:25:27;7.70;;;4.20;;
27201;SDS011;14717;46.924;15.474;2023-11-19T15:27:53;9.75;;;6.18;;
27201;SDS011;14717;46.924;15.474;2023-11-19T15:30:18;9.25;;;4.63;;
27201;SDS011;14717;46.924;15.474;2023-11-19T15:32:43;8.07;;;4.55;;
27201;SDS011;14717;46.924;15.474;2023-11-19T15:35:09;9.93;;;4.43;;